Time;durP1;ratioP1;P1;durP2;ratioP2;P2;SDS_P1;SDS_P2;PMS_P1;PMS_P2;Temp;Humidity;BMP_temperature;BMP_pressure;BME280_temperature;BME280_humidity;BME280_pressure;Samples;Min_cycle;Max_cycle;Signal;HPM_P1;HPM_P2
2023/10/05 00:02:21;;;;;;;3.45;2.00;;;;;;;;;;5074322;28;20542;-75
2023/10/05 00:04:50;;;;;;;4.60;3.03;;;;;;;;;;5073812;28;20696;-75
2023/10/05 00:07:22;;;;;;;6.15;3.85;;;;;;;;;;5074283;28;20224;-75
2023/10/05 00:09:49;;;;;;;6.80;3.30;;;;;;;;;;5073235;28;20183;-75
2023/10/05 00:12:22;;;;;;;5.28;2.67;;;;;;;;;;5073571;28;20185;-75
2023/10/05 00:15:01;;;;;;;8.48;4.00;;;;;;;;;;5073513;28;20699;-75
2023/10/05 00:17:29;;;;;;;7.90;3.40;;;;;;;;;;5073892;28;20191;-75
2023/10/05 00:19:57;;;;;;;5.90;3.30;;;;;;;;;;5073483;28;20217;-75
2023/10/05 00:22:24;;;;;;;7.43;3.30;;;;;;;;;;5073658;28;20190;-75
2023/10/05 00:24:56;;;;;;;6.40;2.95;;;;;;;;;;5073485;28;20285;-75
2023/10/05 00:27:25;;;;;;;5.60;2.50;;;;;;;;;;5073499;28;20265;-75
2023/10/05 00:29:56;;;;;;;4.22;2.47;;;;;;;;;;5073717;28;20194;-75
2023/10/05 00:32:34;;;;;;;5.65;3.22;;;;;;;;;;5073307;28;20193;-75
2023/10/05 00:35:16;;;;;;;8.75;2.75;;;;;;;;;;5073786;28;20190;-75
2023/10/05 00:37:45;;;;;;;3.97;2.47;;;;;;;;;;5073807;28;20630;-75
2023/10/05 00:40:24;;;;;;;5.80;2.70;;;;;;;;;;5073763;28;20214;-75
2023/10/05 00:42:53;;;;;;;4.75;2.80;;;;;;;;;;5073570;28;20178;-75
2023/10/05 00:45:25;;;;;;;4.70;2.60;;;;;;;;;;5072985;28;20186;-75
2023/10/05 00:48:01;;;;;;;4.00;2.42;;;;;;;;;;5073372;28;20686;-75
2023/10/05 00:50:29;;;;;;;4.03;2.00;;;;;;;;;;5073667;28;20241;-75
2023/10/05 00:52:56;;;;;;;4.05;2.50;;;;;;;;;;5073326;28;20609;-75
2023/10/05 00:55:25;;;;;;;5.50;2.10;;;;;;;;;;5073824;28;20588;-75
2023/10/05 00:57:55;;;;;;;3.78;2.50;;;;;;;;;;5077778;28;20293;-75
2023/10/05 01:00:27;;;;;;;4.95;2.10;;;;;;;;;;5077235;28;20309;-75
2023/10/05 01:03:16;;;;;;;8.27;2.60;;;;;;;;;;5076860;28;20212;-75
2023/10/05 01:05:56;;;;;;;3.75;2.00;;;;;;;;;;5076927;28;20228;-75
2023/10/05 01:08:23;;;;;;;3.88;2.03;;;;;;;;;;5077229;28;20174;-75
2023/10/05 01:10:54;;;;;;;5.22;2.67;;;;;;;;;;5077339;28;20611;-75
2023/10/05 01:13:31;;;;;;;4.70;2.17;;;;;;;;;;5077242;28;20218;-75
2023/10/05 01:15:59;;;;;;;3.40;1.95;;;;;;;;;;5077070;28;20231;-75
2023/10/05 01:18:27;;;;;;;3.97;2.08;;;;;;;;;;5076941;28;20243;-75
2023/10/05 01:20:57;;;;;;;3.90;2.10;;;;;;;;;;5077315;28;20194;-75
2023/10/05 01:23:37;;;;;;;3.70;1.90;;;;;;;;;;5076680;28;20285;-75
2023/10/05 01:26:08;;;;;;;3.70;2.15;;;;;;;;;;5076618;28;20526;-75
2023/10/05 01:28:36;;;;;;;4.47;2.80;;;;;;;;;;5077103;28;20223;-75
2023/10/05 01:31:07;;;;;;;3.60;2.30;;;;;;;;;;5077015;28;20192;-74
2023/10/05 01:33:34;;;;;;;5.53;2.53;;;;;;;;;;5076696;28;20186;-75
2023/10/05 01:36:03;;;;;;;4.50;2.50;;;;;;;;;;5076593;28;20190;-75
2023/10/05 01:38:37;;;;;;;3.25;1.83;;;;;;;;;;5075998;28;20190;-75
2023/10/05 01:41:05;;;;;;;4.13;2.40;;;;;;;;;;5076590;28;20185;-75
2023/10/05 01:43:35;;;;;;;4.32;2.13;;;;;;;;;;5076459;28;20194;-75
2023/10/05 01:46:04;;;;;;;4.47;2.55;;;;;;;;;;5076770;28;20194;-75
2023/10/05 01:48:32;;;;;;;4.82;1.90;;;;;;;;;;5076698;28;20599;-74
2023/10/05 01:51:08;;;;;;;4.25;2.80;;;;;;;;;;5075985;28;20200;-75
2023/10/05 01:53:36;;;;;;;4.20;2.58;;;;;;;;;;5076900;28;20536;-75
2023/10/05 01:56:05;;;;;;;4.38;3.22;;;;;;;;;;5076461;28;20202;-75
2023/10/05 01:58:36;;;;;;;4.75;3.25;;;;;;;;;;5076492;28;20226;-75
2023/10/05 02:01:06;;;;;;;7.65;2.50;;;;;;;;;;5076553;28;20178;-75
2023/10/05 02:03:34;;;;;;;6.95;2.67;;;;;;;;;;5075216;28;20753;-75
2023/10/05 02:06:05;;;;;;;5.18;2.92;;;;;;;;;;5076425;28;20223;-75
2023/10/05 02:08:36;;;;;;;4.60;2.22;;;;;;;;;;5075704;28;20174;-75
2023/10/05 02:11:06;;;;;;;3.30;2.03;;;;;;;;;;5075878;28;20178;-75
2023/10/05 02:13:38;;;;;;;4.95;2.70;;;;;;;;;;5074706;28;20413;-75
2023/10/05 02:16:14;;;;;;;4.65;2.58;;;;;;;;;;5076284;28;20192;-75
2023/10/05 02:18:41;;;;;;;6.95;3.10;;;;;;;;;;5075082;28;20185;-75
2023/10/05 02:21:18;;;;;;;6.47;3.45;;;;;;;;;;5075888;28;20197;-75
2023/10/05 02:23:49;;;;;;;5.10;3.30;;;;;;;;;;5075738;28;20633;-75
2023/10/05 02:26:25;;;;;;;6.10;2.83;;;;;;;;;;5075616;28;20186;-75
2023/10/05 02:28:55;;;;;;;6.20;3.60;;;;;;;;;;5075244;28;20228;-75
2023/10/05 02:31:22;;;;;;;8.63;3.97;;;;;;;;;;5075039;28;20208;-75
2023/10/05 02:33:52;;;;;;;9.30;3.50;;;;;;;;;;5075289;28;20277;-75
2023/10/05 02:36:26;;;;;;;4.75;3.15;;;;;;;;;;5075792;28;20277;-75
2023/10/05 02:38:54;;;;;;;6.00;2.90;;;;;;;;;;5075761;28;20196;-75
2023/10/05 02:41:37;;;;;;;4.78;2.75;;;;;;;;;;5074875;28;20183;-75
2023/10/05 02:44:10;;;;;;;4.32;3.13;;;;;;;;;;5075772;28;20186;-75
2023/10/05 02:46:38;;;;;;;4.95;2.35;;;;;;;;;;5075700;28;20260;-75
2023/10/05 02:49:05;;;;;;;3.05;1.90;;;;;;;;;;5075256;28;20310;-75
2023/10/05 02:51:33;;;;;;;4.97;2.20;;;;;;;;;;5074751;28;20186;-75
2023/10/05 02:54:07;;;;;;;4.80;2.40;;;;;;;;;;5075193;28;20194;-75
2023/10/05 02:56:37;;;;;;;3.00;2.03;;;;;;;;;;5075399;28;20265;-75
2023/10/05 02:59:07;;;;;;;4.63;2.50;;;;;;;;;;5074672;28;20178;-75
2023/10/05 03:01:37;;;;;;;3.95;2.40;;;;;;;;;;5074979;28;20178;-75
2023/10/05 03:04:09;;;;;;;3.50;2.35;;;;;;;;;;5074633;28;20640;-75
2023/10/05 03:06:39;;;;;;;4.70;2.55;;;;;;;;;;5075431;28;20182;-75
2023/10/05 03:09:08;;;;;;;3.25;2.10;;;;;;;;;;5074843;28;20670;-75
2023/10/05 03:11:40;;;;;;;4.80;2.85;;;;;;;;;;5074782;28;20637;-75
2023/10/05 03:14:09;;;;;;;4.35;2.55;;;;;;;;;;5074129;28;20268;-75
2023/10/05 03:16:43;;;;;;;4.25;2.53;;;;;;;;;;5075100;28;20193;-75
2023/10/05 03:19:13;;;;;;;6.78;2.95;;;;;;;;;;5074614;28;20178;-75
2023/10/05 03:21:45;;;;;;;4.53;2.50;;;;;;;;;;5074922;28;20590;-75
2023/10/05 03:24:14;;;;;;;6.05;2.70;;;;;;;;;;5074426;28;20575;-75
2023/10/05 03:26:43;;;;;;;5.00;2.35;;;;;;;;;;5074730;28;20202;-75
2023/10/05 03:29:11;;;;;;;5.38;3.33;;;;;;;;;;5074875;28;20553;-75
2023/10/05 03:31:43;;;;;;;6.22;4.18;;;;;;;;;;5074988;28;20289;-75
2023/10/05 03:34:16;;;;;;;4.80;3.70;;;;;;;;;;5074763;28;20182;-75
2023/10/05 03:36:47;;;;;;;8.75;4.20;;;;;;;;;;5074591;28;20573;-75
2023/10/05 03:39:14;;;;;;;5.35;3.85;;;;;;;;;;5074548;28;20178;-75
2023/10/05 03:41:43;;;;;;;4.50;3.55;;;;;;;;;;5074169;28;20675;-75
2023/10/05 03:44:15;;;;;;;8.07;3.10;;;;;;;;;;5074430;28;20193;-75
2023/10/05 03:46:46;;;;;;;4.30;2.60;;;;;;;;;;5074094;28;20213;-75
2023/10/05 03:49:15;;;;;;;5.68;3.03;;;;;;;;;;5074159;28;20178;-75
2023/10/05 03:51:49;;;;;;;6.53;2.83;;;;;;;;;;5074647;28;20263;-75
2023/10/05 03:54:18;;;;;;;5.55;2.97;;;;;;;;;;5074562;28;20206;-75
2023/10/05 03:56:50;;;;;;;4.32;2.70;;;;;;;;;;5073814;28;20275;-75
2023/10/05 03:59:17;;;;;;;7.05;4.82;;;;;;;;;;5073850;28;20644;-75
2023/10/05 04:01:48;;;;;;;6.45;4.78;;;;;;;;;;5074133;28;20201;-75
2023/10/05 04:04:16;;;;;;;6.45;3.78;;;;;;;;;;5073223;28;20193;-75
2023/10/05 04:06:51;;;;;;;5.45;3.78;;;;;;;;;;5073744;28;20276;-75
2023/10/05 04:09:19;;;;;;;4.93;3.00;;;;;;;;;;5074201;28;20186;-77
2023/10/05 04:11:49;;;;;;;3.92;2.40;;;;;;;;;;5073973;28;20191;-77
2023/10/05 04:14:16;;;;;;;5.95;2.78;;;;;;;;;;5073085;28;20253;-77
2023/10/05 04:16:44;;;;;;;7.55;3.05;;;;;;;;;;5074224;28;20254;-77
2023/10/05 04:19:11;;;;;;;4.32;3.00;;;;;;;;;;5074125;28;20209;-77
2023/10/05 04:21:40;;;;;;;7.10;4.00;;;;;;;;;;5073458;28;20218;-77
2023/10/05 04:24:14;;;;;;;5.57;3.00;;;;;;;;;;5074071;28;20195;-77
2023/10/05 04:26:48;;;;;;;6.30;3.30;;;;;;;;;;5073142;28;20209;-77
2023/10/05 04:29:15;;;;;;;5.63;3.92;;;;;;;;;;5073317;28;20177;-77
2023/10/05 04:31:48;;;;;;;12.77;9.25;;;;;;;;;;5072823;28;20709;-77
2023/10/05 04:34:18;;;;;;;10.13;7.35;;;;;;;;;;5073653;28;20628;-77
2023/10/05 04:36:45;;;;;;;14.40;9.30;;;;;;;;;;5073206;28;20174;-77
2023/10/05 04:39:21;;;;;;;14.63;10.50;;;;;;;;;;5073454;28;20194;-77
2023/10/05 04:41:50;;;;;;;10.35;7.88;;;;;;;;;;5073201;28;20185;-77
2023/10/05 04:44:18;;;;;;;9.82;6.38;;;;;;;;;;5073101;28;20243;-77
2023/10/05 04:46:47;;;;;;;11.05;6.80;;;;;;;;;;5073564;28;20190;-76
2023/10/05 04:49:16;;;;;;;10.15;6.40;;;;;;;;;;5073104;28;20201;-77
2023/10/05 04:51:44;;;;;;;6.55;4.28;;;;;;;;;;5073522;28;20198;-77
2023/10/05 04:54:18;;;;;;;4.30;2.83;;;;;;;;;;5073453;28;20286;-77
2023/10/05 04:57:03;;;;;;;5.63;2.20;;;;;;;;;;5073772;28;20541;-77
2023/10/05 05:02:38;;;;;;;10.18;7.00;;;;;;;;;;5062056;28;20532;-76
2023/10/05 05:05:21;;;;;;;4.22;3.08;;;;;;;;;;5072286;28;20183;-77
2023/10/05 05:07:52;;;;;;;3.97;2.63;;;;;;;;;;5073571;28;20323;-76
2023/10/05 05:10:26;;;;;;;11.82;7.65;;;;;;;;;;5072874;28;20544;-76
2023/10/05 05:12:53;;;;;;;34.15;20.55;;;;;;;;;;5072745;28;20190;-77
2023/10/05 05:15:28;;;;;;;69.05;39.67;;;;;;;;;;5073294;28;20185;-77
2023/10/05 05:17:55;;;;;;;39.33;24.77;;;;;;;;;;5073374;28;20218;-77
2023/10/05 05:20:23;;;;;;;24.58;13.48;;;;;;;;;;5072528;28;20213;-77
2023/10/05 05:22:53;;;;;;;11.98;7.80;;;;;;;;;;5072996;28;20255;-77
2023/10/05 05:25:20;;;;;;;8.05;5.55;;;;;;;;;;5070330;28;20197;-77
2023/10/05 05:27:48;;;;;;;6.10;2.90;;;;;;;;;;5072308;28;20201;-77
2023/10/05 05:30:24;;;;;;;4.53;1.92;;;;;;;;;;5072642;28;20586;-77
2023/10/05 05:32:54;;;;;;;3.10;2.13;;;;;;;;;;5052526;28;20492;-77
2023/10/05 05:35:22;;;;;;;6.30;2.25;;;;;;;;;;5061319;28;20183;-77
2023/10/05 05:37:50;;;;;;;5.72;2.20;;;;;;;;;;5071476;28;20240;-77
2023/10/05 05:40:18;;;;;;;5.53;4.20;;;;;;;;;;5072114;28;20218;-76
2023/10/05 05:42:45;;;;;;;6.35;2.90;;;;;;;;;;5074794;28;20205;-77
2023/10/05 05:45:16;;;;;;;4.53;3.35;;;;;;;;;;5075876;28;20251;-77
2023/10/05 05:47:48;;;;;;;6.93;3.40;;;;;;;;;;5076116;28;20358;-77
2023/10/05 05:50:18;;;;;;;7.30;4.07;;;;;;;;;;5075390;28;20174;-75
2023/10/05 05:52:51;;;;;;;5.70;3.90;;;;;;;;;;5075270;28;20240;-75
2023/10/05 05:55:20;;;;;;;5.63;3.55;;;;;;;;;;5075751;28;20182;-75
2023/10/05 05:57:50;;;;;;;5.70;3.28;;;;;;;;;;5075599;28;20239;-75
2023/10/05 06:00:19;;;;;;;7.93;2.78;;;;;;;;;;5075637;28;20250;-74
2023/10/05 06:02:47;;;;;;;5.72;2.75;;;;;;;;;;5075310;28;20201;-75
2023/10/05 06:05:18;;;;;;;4.93;2.70;;;;;;;;;;5074688;28;20706;-75
2023/10/05 06:07:46;;;;;;;8.93;3.33;;;;;;;;;;5075226;28;20713;-75
2023/10/05 06:10:14;;;;;;;4.78;2.80;;;;;;;;;;5074960;28;20221;-77
2023/10/05 06:12:51;;;;;;;5.18;3.47;;;;;;;;;;5075408;28;20278;-77
2023/10/05 06:15:18;;;;;;;3.95;2.67;;;;;;;;;;5035529;28;20535;-77
2023/10/05 06:17:45;;;;;;;5.18;3.33;;;;;;;;;;5035475;28;20199;-77
2023/10/05 06:20:15;;;;;;;8.98;5.05;;;;;;;;;;5034846;28;20568;-77
2023/10/05 06:22:44;;;;;;;9.30;4.65;;;;;;;;;;5034786;28;20187;-77
2023/10/05 06:25:12;;;;;;;8.02;4.80;;;;;;;;;;5031657;28;20187;-77
2023/10/05 06:27:39;;;;;;;6.72;4.30;;;;;;;;;;5034438;28;20195;-75
2023/10/05 06:30:08;;;;;;;9.82;6.60;;;;;;;;;;5034815;28;20198;-75
2023/10/05 06:32:36;;;;;;;16.95;9.18;;;;;;;;;;5035126;28;20234;-75
2023/10/05 06:35:07;;;;;;;131.13;69.22;;;;;;;;;;5035188;28;20195;-75
2023/10/05 06:37:39;;;;;;;102.15;52.45;;;;;;;;;;5034901;28;20179;-75
2023/10/05 06:40:09;;;;;;;57.58;32.67;;;;;;;;;;5034494;28;20199;-75
2023/10/05 06:42:43;;;;;;;53.10;33.78;;;;;;;;;;5034696;28;20203;-75
2023/10/05 06:45:13;;;;;;;17.60;9.23;;;;;;;;;;5034914;28;20187;-74
2023/10/05 06:47:40;;;;;;;6.28;4.47;;;;;;;;;;5034830;28;20235;-74
2023/10/05 06:50:15;;;;;;;5.72;3.85;;;;;;;;;;5034671;28;20226;-75
2023/10/05 06:52:43;;;;;;;5.70;3.30;;;;;;;;;;5033720;28;20191;-75
2023/10/05 06:55:17;;;;;;;7.57;3.90;;;;;;;;;;5033306;28;20195;-75
2023/10/05 06:57:45;;;;;;;4.63;3.15;;;;;;;;;;5034643;28;20234;-75
2023/10/05 07:00:16;;;;;;;8.45;4.82;;;;;;;;;;5033953;28;20188;-75
2023/10/05 07:02:44;;;;;;;12.25;6.40;;;;;;;;;;5033709;28;20180;-75
2023/10/05 07:05:12;;;;;;;8.20;5.32;;;;;;;;;;5035220;28;20187;-75
2023/10/05 07:07:42;;;;;;;7.75;5.05;;;;;;;;;;5034898;28;20192;-75
2023/10/05 07:10:14;;;;;;;5.60;3.70;;;;;;;;;;5034985;28;20542;-75
2023/10/05 07:12:46;;;;;;;8.60;4.03;;;;;;;;;;5035050;28;20263;-75
2023/10/05 07:15:15;;;;;;;9.00;4.30;;;;;;;;;;5075330;28;20428;-75
2023/10/05 07:17:43;;;;;;;6.20;4.35;;;;;;;;;;5074797;28;20211;-75
2023/10/05 07:20:11;;;;;;;5.90;3.37;;;;;;;;;;5074763;28;20267;-75
2023/10/05 07:22:39;;;;;;;5.15;2.75;;;;;;;;;;5074743;28;20437;-75
2023/10/05 07:25:08;;;;;;;4.70;2.97;;;;;;;;;;5074303;28;20222;-75
2023/10/05 07:27:37;;;;;;;4.70;2.93;;;;;;;;;;5074635;28;20494;-75
2023/10/05 07:30:09;;;;;;;5.67;3.37;;;;;;;;;;5074568;28;20793;-75
2023/10/05 07:32:37;;;;;;;5.03;3.50;;;;;;;;;;5074617;28;20510;-75
2023/10/05 07:35:12;;;;;;;4.30;2.70;;;;;;;;;;5074449;28;20490;-75
2023/10/05 07:37:39;;;;;;;4.80;2.47;;;;;;;;;;5074163;28;20975;-75
2023/10/05 07:40:07;;;;;;;4.47;3.07;;;;;;;;;;5074055;28;20446;-75
2023/10/05 07:42:37;;;;;;;3.93;2.80;;;;;;;;;;5074359;28;20504;-75
2023/10/05 07:45:07;;;;;;;5.20;3.20;;;;;;;;;;5073955;28;20432;-75
2023/10/05 07:47:34;;;;;;;14.70;9.70;;;;;;;;;;5074321;28;20439;-75
2023/10/05 07:50:02;;;;;;;13.70;7.40;;;;;;;;;;5073878;28;20496;-75
2023/10/05 07:52:30;;;;;;;9.80;7.40;;;;;;;;;;5074085;28;20441;-75
2023/10/05 07:54:58;;;;;;;12.20;7.43;;;;;;;;;;5073971;28;20444;-76
2023/10/05 07:57:25;;;;;;;6.70;4.67;;;;;;;;;;5074124;28;20432;-75
2023/10/05 08:00:03;;;;;;;8.00;5.50;;;;;;;;;;5073672;28;20935;-75
2023/10/05 08:02:33;;;;;;;6.77;4.33;;;;;;;;;;5073039;28;20509;-75
2023/10/05 08:05:01;;;;;;;8.20;4.90;;;;;;;;;;5073755;28;20440;-75
2023/10/05 08:07:33;;;;;;;10.53;6.80;;;;;;;;;;5073257;28;21007;-75
2023/10/05 08:10:05;;;;;;;6.17;3.97;;;;;;;;;;5074054;28;20432;-75
2023/10/05 08:12:32;;;;;;;5.50;3.80;;;;;;;;;;5073892;28;20834;-75
2023/10/05 08:15:02;;;;;;;4.63;2.90;;;;;;;;;;5073872;28;20488;-75
2023/10/05 08:17:34;;;;;;;5.73;3.50;;;;;;;;;;5073639;28;20432;-76
2023/10/05 08:20:04;;;;;;;4.80;3.00;;;;;;;;;;5073886;28;20508;-75
2023/10/05 08:22:32;;;;;;;4.50;2.80;;;;;;;;;;5073526;28;20495;-75
2023/10/05 08:25:00;;;;;;;4.77;2.60;;;;;;;;;;5073691;28;20490;-75
2023/10/05 08:27:29;;;;;;;5.10;2.57;;;;;;;;;;5073341;28;20444;-75
2023/10/05 08:29:56;;;;;;;4.83;2.87;;;;;;;;;;5073198;28;20440;-75
2023/10/05 08:32:25;;;;;;;5.87;2.97;;;;;;;;;;5073486;28;20444;-76
2023/10/05 08:34:53;;;;;;;4.60;2.87;;;;;;;;;;5073642;28;20424;-76
2023/10/05 08:37:22;;;;;;;4.50;2.97;;;;;;;;;;5073476;28;20439;-76
2023/10/05 08:39:51;;;;;;;6.20;3.87;;;;;;;;;;5073342;28;20436;-76
2023/10/05 08:42:18;;;;;;;4.43;3.10;;;;;;;;;;5073263;28;20476;-76
2023/10/05 08:44:46;;;;;;;8.30;6.10;;;;;;;;;;5073478;28;20524;-75
2023/10/05 08:47:14;;;;;;;7.30;3.53;;;;;;;;;;5073401;28;20519;-75
2023/10/05 08:49:43;;;;;;;4.20;2.40;;;;;;;;;;5073454;28;20502;-76
2023/10/05 08:52:13;;;;;;;5.33;3.00;;;;;;;;;;5073038;28;20471;-76
2023/10/05 08:54:40;;;;;;;4.20;2.80;;;;;;;;;;5073386;28;20425;-76
2023/10/05 08:57:10;;;;;;;6.53;3.90;;;;;;;;;;5073260;28;20437;-76
2023/10/05 08:59:38;;;;;;;18.10;3.33;;;;;;;;;;5072920;28;20437;-76
2023/10/05 09:02:09;;;;;;;4.57;2.70;;;;;;;;;;5072839;28;20476;-75
2023/10/05 09:04:47;;;;;;;5.53;3.40;;;;;;;;;;5073391;28;20490;-76
2023/10/05 09:07:29;;;;;;;5.63;3.37;;;;;;;;;;5072784;28;20934;-75
2023/10/05 09:10:15;;;;;;;5.17;3.63;;;;;;;;;;5073229;28;20823;-75
2023/10/05 09:12:42;;;;;;;6.00;3.30;;;;;;;;;;5073171;28;20817;-76
2023/10/05 09:15:14;;;;;;;11.20;3.57;;;;;;;;;;5073335;28;20437;-76
2023/10/05 09:18:06;;;;;;;4.83;2.77;;;;;;;;;;5076084;28;20770;-76
2023/10/05 09:20:36;;;;;;;6.30;2.90;;;;;;;;;;5077205;28;20428;-76
2023/10/05 09:23:06;;;;;;;4.60;2.20;;;;;;;;;;5076630;28;21061;-76
2023/10/05 09:25:34;;;;;;;4.60;2.97;;;;;;;;;;5076553;28;20983;-76
2023/10/05 09:28:09;;;;;;;5.57;2.97;;;;;;;;;;5076598;28;20456;-75
2023/10/05 09:30:49;;;;;;;4.97;2.97;;;;;;;;;;5076896;28;20420;-76
2023/10/05 09:33:18;;;;;;;5.03;2.97;;;;;;;;;;5076466;28;20425;-76
2023/10/05 09:35:46;;;;;;;4.90;2.37;;;;;;;;;;5076841;28;20436;-75
2023/10/05 09:38:17;;;;;;;4.27;3.00;;;;;;;;;;5076744;28;20933;-75
2023/10/05 09:40:47;;;;;;;4.40;3.20;;;;;;;;;;5076314;28;20459;-75
2023/10/05 09:43:18;;;;;;;4.37;3.23;;;;;;;;;;5076475;28;20517;-76
2023/10/05 09:45:47;;;;;;;3.80;2.60;;;;;;;;;;5077002;28;20431;-75
2023/10/05 09:48:20;;;;;;;5.13;2.73;;;;;;;;;;5076489;28;20494;-76
2023/10/05 09:50:48;;;;;;;5.13;3.07;;;;;;;;;;5076243;28;20412;-75
2023/10/05 09:53:18;;;;;;;7.17;4.03;;;;;;;;;;5076102;28;20436;-75
2023/10/05 09:55:49;;;;;;;6.47;3.03;;;;;;;;;;5076577;28;20435;-75
2023/10/05 09:58:18;;;;;;;5.13;3.30;;;;;;;;;;5076620;28;20433;-75
2023/10/05 10:00:55;;;;;;;5.40;2.90;;;;;;;;;;5075907;28;20436;-75
2023/10/05 10:03:22;;;;;;;10.00;3.10;;;;;;;;;;5075854;28;20459;-75
2023/10/05 10:05:54;;;;;;;5.53;3.27;;;;;;;;;;5075844;28;20433;-75
2023/10/05 10:08:24;;;;;;;4.30;2.87;;;;;;;;;;5076320;28;20432;-76
2023/10/05 10:11:06;;;;;;;6.13;3.17;;;;;;;;;;5075810;28;20424;-76
2023/10/05 10:13:38;;;;;;;4.07;3.23;;;;;;;;;;5075857;28;20556;-75
2023/10/05 10:16:17;;;;;;;5.10;3.03;;;;;;;;;;5075714;28;20425;-76
2023/10/05 10:18:45;;;;;;;5.03;3.10;;;;;;;;;;5076034;28;20422;-76
2023/10/05 10:21:24;;;;;;;6.63;4.50;;;;;;;;;;5075491;28;20466;-75
2023/10/05 10:24:07;;;;;;;4.37;2.90;;;;;;;;;;5076048;28;20420;-75
2023/10/05 10:26:40;;;;;;;4.23;3.17;;;;;;;;;;5075813;28;20428;-76
2023/10/05 10:29:11;;;;;;;5.30;3.30;;;;;;;;;;5074553;28;20420;-75
2023/10/05 10:31:47;;;;;;;6.10;3.40;;;;;;;;;;5075612;28;20835;-75
2023/10/05 10:34:19;;;;;;;6.20;3.57;;;;;;;;;;5075445;28;20501;-75
2023/10/05 10:36:52;;;;;;;6.90;3.83;;;;;;;;;;5075643;28;20427;-75
2023/10/05 10:39:24;;;;;;;5.47;3.20;;;;;;;;;;5075650;28;20464;-76
2023/10/05 10:41:56;;;;;;;7.13;3.67;;;;;;;;;;5074964;28;20464;-76
2023/10/05 10:44:24;;;;;;;5.10;3.20;;;;;;;;;;5075566;28;20498;-76
2023/10/05 10:47:08;;;;;;;5.70;3.20;;;;;;;;;;5075024;28;20841;-75
2023/10/05 10:49:39;;;;;;;6.73;3.63;;;;;;;;;;5075248;28;20421;-76
2023/10/05 10:52:09;;;;;;;5.10;3.37;;;;;;;;;;5075012;28;20446;-76
2023/10/05 10:54:42;;;;;;;4.40;2.73;;;;;;;;;;5074373;28;20880;-76
2023/10/05 10:57:16;;;;;;;4.10;2.60;;;;;;;;;;5074957;28;20811;-75
2023/10/05 10:59:46;;;;;;;4.53;2.70;;;;;;;;;;5074487;28;20425;-76
2023/10/05 11:02:19;;;;;;;5.90;2.83;;;;;;;;;;5074188;28;21008;-76
2023/10/05 11:04:49;;;;;;;4.80;2.60;;;;;;;;;;5074702;28;20914;-76
2023/10/05 11:07:22;;;;;;;5.00;2.77;;;;;;;;;;5069792;28;20440;-76
2023/10/05 11:09:52;;;;;;;8.40;3.13;;;;;;;;;;5060451;28;20451;-75
2023/10/05 11:12:22;;;;;;;5.53;3.37;;;;;;;;;;5074346;28;20511;-76
2023/10/05 11:14:56;;;;;;;5.63;3.03;;;;;;;;;;5059162;28;20512;-76
2023/10/05 11:17:24;;;;;;;6.33;3.10;;;;;;;;;;5057115;28;20438;-75
2023/10/05 11:19:52;;;;;;;4.53;3.23;;;;;;;;;;5073582;28;20530;-76
2023/10/05 11:22:24;;;;;;;6.67;3.20;;;;;;;;;;5073622;28;20523;-76
2023/10/05 11:25:14;;;;;;;5.00;2.73;;;;;;;;;;5073677;28;20477;-76
2023/10/05 11:27:48;;;;;;;4.40;2.60;;;;;;;;;;5074418;28;20449;-75
2023/10/05 11:30:24;;;;;;;4.70;2.63;;;;;;;;;;5073906;28;20754;-76
2023/10/05 11:32:57;;;;;;;4.93;2.63;;;;;;;;;;5071680;28;20471;-76
2023/10/05 11:35:29;;;;;;;4.63;2.70;;;;;;;;;;5073456;28;20483;-76
2023/10/05 11:37:59;;;;;;;5.30;2.83;;;;;;;;;;5071748;28;20424;-76
2023/10/05 11:40:47;;;;;;;6.23;3.30;;;;;;;;;;5073182;28;20427;-75
2023/10/05 11:43:16;;;;;;;7.90;2.57;;;;;;;;;;5074355;28;20501;-75
2023/10/05 11:45:56;;;;;;;5.03;3.10;;;;;;;;;;5072254;28;20467;-75
2023/10/05 11:48:32;;;;;;;4.47;2.97;;;;;;;;;;5072868;28;20505;-75
2023/10/05 11:51:00;;;;;;;6.17;2.63;;;;;;;;;;5073591;28;20445;-75
2023/10/05 11:53:27;;;;;;;4.60;2.60;;;;;;;;;;5074136;28;20490;-75
2023/10/05 11:55:56;;;;;;;6.33;2.77;;;;;;;;;;5072710;28;20953;-75
2023/10/05 11:58:24;;;;;;;3.97;2.60;;;;;;;;;;5073527;28;20467;-75
2023/10/05 12:00:55;;;;;;;5.37;2.83;;;;;;;;;;5074333;28;20460;-76
2023/10/05 12:03:28;;;;;;;5.83;3.20;;;;;;;;;;5073490;28;20548;-75
2023/10/05 12:06:00;;;;;;;6.17;2.90;;;;;;;;;;5073539;28;20786;-75
2023/10/05 12:08:29;;;;;;;5.23;3.00;;;;;;;;;;5073480;28;20425;-75
2023/10/05 12:10:59;;;;;;;5.63;3.40;;;;;;;;;;5073694;28;20797;-75
2023/10/05 12:13:26;;;;;;;4.20;2.90;;;;;;;;;;5073502;28;20468;-76
2023/10/05 12:15:59;;;;;;;3.97;2.33;;;;;;;;;;5073638;28;20926;-76
2023/10/05 12:18:32;;;;;;;5.80;3.17;;;;;;;;;;5073372;28;20421;-76
2023/10/05 12:21:02;;;;;;;5.40;2.70;;;;;;;;;;5073268;28;20421;-75
2023/10/05 12:23:30;;;;;;;4.77;3.23;;;;;;;;;;5073641;28;20464;-76
2023/10/05 12:26:00;;;;;;;4.37;2.97;;;;;;;;;;5073200;28;20476;-75
2023/10/05 12:28:29;;;;;;;5.80;2.70;;;;;;;;;;5073465;28;20508;-76
2023/10/05 12:30:56;;;;;;;7.47;2.60;;;;;;;;;;5073610;28;20472;-75
2023/10/05 12:33:24;;;;;;;5.70;3.10;;;;;;;;;;5073277;28;20985;-76
2023/10/05 12:35:52;;;;;;;4.83;2.30;;;;;;;;;;5073516;28;20468;-76
2023/10/05 12:38:22;;;;;;;4.67;2.53;;;;;;;;;;5073518;28;20436;-76
2023/10/05 12:40:49;;;;;;;9.97;3.43;;;;;;;;;;5073483;28;20462;-76
2023/10/05 12:43:19;;;;;;;7.00;2.63;;;;;;;;;;5072918;28;20464;-76
2023/10/05 12:45:46;;;;;;;6.17;3.00;;;;;;;;;;5073335;28;20494;-75
2023/10/05 12:48:15;;;;;;;4.97;2.67;;;;;;;;;;5072967;28;20428;-75
2023/10/05 12:50:42;;;;;;;4.93;2.50;;;;;;;;;;5072762;28;20502;-75
2023/10/05 12:53:10;;;;;;;9.97;3.00;;;;;;;;;;5072360;28;20476;-75
2023/10/05 12:55:38;;;;;;;6.70;3.90;;;;;;;;;;5073234;28;20509;-76
2023/10/05 12:58:08;;;;;;;5.07;2.40;;;;;;;;;;5073332;28;20519;-75
2023/10/05 13:00:40;;;;;;;5.00;2.47;;;;;;;;;;5072905;28;20478;-75
2023/10/05 13:03:11;;;;;;;7.20;3.20;;;;;;;;;;5072831;28;21037;-75
2023/10/05 13:05:43;;;;;;;10.13;3.20;;;;;;;;;;5072855;28;20974;-76
2023/10/05 13:08:16;;;;;;;8.10;3.20;;;;;;;;;;5073247;28;20830;-76
2023/10/05 13:10:48;;;;;;;7.43;2.93;;;;;;;;;;5073048;28;20425;-76
2023/10/05 13:13:18;;;;;;;9.27;3.83;;;;;;;;;;5072846;28;20472;-75
2023/10/05 13:15:47;;;;;;;9.77;4.90;;;;;;;;;;5073095;28;20424;-75
2023/10/05 13:18:19;;;;;;;12.07;6.13;;;;;;;;;;5072668;28;20960;-75
2023/10/05 13:20:47;;;;;;;6.50;4.53;;;;;;;;;;5072664;28;20942;-75
2023/10/05 13:23:18;;;;;;;6.87;2.93;;;;;;;;;;5072531;28;20476;-75
2023/10/05 13:25:47;;;;;;;6.27;3.30;;;;;;;;;;5072977;28;20429;-75
2023/10/05 13:28:16;;;;;;;7.40;2.90;;;;;;;;;;5072954;28;20456;-75
2023/10/05 13:30:46;;;;;;;9.10;3.43;;;;;;;;;;5072899;28;20467;-75
2023/10/05 13:33:17;;;;;;;5.37;2.87;;;;;;;;;;5072590;28;20453;-75
2023/10/05 13:35:50;;;;;;;5.53;3.07;;;;;;;;;;5072551;28;20490;-75
2023/10/05 13:38:27;;;;;;;7.60;3.13;;;;;;;;;;5072860;28;20432;-75
2023/10/05 13:41:13;;;;;;;6.00;2.70;;;;;;;;;;5072552;28;20425;-75
2023/10/05 13:43:41;;;;;;;10.60;3.37;;;;;;;;;;5072800;28;20474;-75
2023/10/05 13:46:12;;;;;;;5.20;2.60;;;;;;;;;;5072822;28;20432;-75
2023/10/05 13:48:42;;;;;;;7.47;2.83;;;;;;;;;;5072480;28;20922;-75
2023/10/05 13:51:11;;;;;;;7.53;3.30;;;;;;;;;;5072681;28;20517;-75
2023/10/05 13:53:44;;;;;;;4.30;3.23;;;;;;;;;;5070281;28;20964;-75
2023/10/05 13:56:12;;;;;;;5.70;3.13;;;;;;;;;;5072337;28;20429;-75
2023/10/05 13:58:46;;;;;;;6.13;2.60;;;;;;;;;;5072816;28;20437;-75
2023/10/05 14:01:23;;;;;;;5.20;2.67;;;;;;;;;;5072815;28;20451;-75
2023/10/05 14:03:53;;;;;;;5.93;2.77;;;;;;;;;;5075396;28;20882;-75
2023/10/05 14:06:28;;;;;;;10.80;3.80;;;;;;;;;;5076061;28;20463;-75
2023/10/05 14:08:57;;;;;;;7.93;3.23;;;;;;;;;;5075663;28;20420;-76
2023/10/05 14:11:29;;;;;;;5.67;3.10;;;;;;;;;;5075655;28;20472;-75
2023/10/05 14:13:57;;;;;;;6.87;2.93;;;;;;;;;;5075792;28;20478;-75
2023/10/05 14:16:24;;;;;;;7.00;3.80;;;;;;;;;;5075586;28;20433;-75
2023/10/05 14:18:53;;;;;;;7.87;2.80;;;;;;;;;;5075760;28;20428;-75
2023/10/05 14:21:21;;;;;;;5.13;2.60;;;;;;;;;;5076007;28;20447;-75
2023/10/05 14:23:58;;;;;;;5.33;2.77;;;;;;;;;;5075709;28;20503;-75
2023/10/05 14:26:27;;;;;;;7.07;3.30;;;;;;;;;;5075353;28;20460;-75
2023/10/05 14:28:55;;;;;;;6.33;3.73;;;;;;;;;;5075619;28;20444;-75
2023/10/05 14:31:23;;;;;;;5.10;3.23;;;;;;;;;;5075125;28;20437;-75
2023/10/05 14:33:53;;;;;;;7.47;3.20;;;;;;;;;;5075226;28;20428;-75
2023/10/05 14:36:22;;;;;;;7.57;3.93;;;;;;;;;;5075670;28;20420;-75
2023/10/05 14:38:50;;;;;;;4.03;2.70;;;;;;;;;;5075222;28;20440;-75
2023/10/05 14:41:19;;;;;;;6.80;3.50;;;;;;;;;;5074994;28;20460;-75
2023/10/05 14:43:46;;;;;;;8.27;3.63;;;;;;;;;;5075053;28;20826;-75
2023/10/05 14:46:21;;;;;;;5.80;3.30;;;;;;;;;;5074981;28;20506;-75
2023/10/05 14:48:50;;;;;;;7.60;2.83;;;;;;;;;;5075360;28;20452;-75
2023/10/05 14:51:19;;;;;;;5.30;2.93;;;;;;;;;;5074863;28;20482;-75
2023/10/05 14:53:49;;;;;;;5.40;2.83;;;;;;;;;;5074766;28;20513;-76
2023/10/05 14:56:16;;;;;;;4.67;2.87;;;;;;;;;;5075035;28;20831;-75
2023/10/05 14:58:48;;;;;;;6.80;3.43;;;;;;;;;;5074672;28;20445;-75
2023/10/05 15:01:15;;;;;;;6.00;3.37;;;;;;;;;;5075087;28;20420;-75
2023/10/05 15:03:45;;;;;;;5.70;3.40;;;;;;;;;;5074784;28;20477;-75
2023/10/05 15:06:13;;;;;;;7.40;3.70;;;;;;;;;;5073035;28;20459;-75